createdAt,value
2022-09-20T00:01:10.772Z,78.26
2022-09-20T00:11:18.178Z,78.25
2022-09-20T00:21:23.345Z,78.36
2022-09-20T00:31:30.569Z,78.30
2022-09-20T00:41:36.071Z,78.30
2022-09-20T00:51:42.440Z,78.41
2022-09-20T01:01:49.665Z,78.33
2022-09-20T01:11:56.621Z,78.34
2022-09-20T01:22:03.726Z,78.30
2022-09-20T01:32:10.702Z,78.17
2022-09-20T01:42:18.285Z,78.18
2022-09-20T01:52:25.400Z,78.19
2022-09-20T02:02:30.654Z,78.21
2022-09-20T02:12:37.846Z,78.07
2022-09-20T02:22:43.316Z,78.20
2022-09-20T02:32:50.432Z,78.16
2022-09-20T02:42:56.165Z,78.26
2022-09-20T02:53:04.289Z,78.20
2022-09-20T03:03:11.732Z,78.21
2022-09-20T03:13:18.854Z,78.13
2022-09-20T03:23:24.290Z,78.12
2022-09-20T03:33:31.475Z,78.07
2022-09-20T03:43:38.665Z,78.06
2022-09-20T03:53:45.718Z,78.00
2022-09-20T04:03:50.970Z,77.96
2022-09-20T04:13:57.994Z,77.85
2022-09-20T04:24:03.681Z,77.81
2022-09-20T04:34:10.857Z,77.81
2022-09-20T04:44:16.136Z,77.79
2022-09-20T04:54:23.044Z,77.92
2022-09-20T05:04:28.406Z,77.86
2022-09-20T05:14:35.461Z,77.90
2022-09-20T05:24:40.550Z,77.83
2022-09-20T05:34:47.243Z,77.50
2022-09-20T05:44:54.057Z,77.67
2022-09-20T05:55:01.028Z,77.76
2022-09-20T06:05:06.255Z,80.24
2022-09-20T06:15:13.150Z,79.36
2022-09-20T06:25:18.824Z,78.41
2022-09-20T06:35:25.525Z,77.19
2022-09-20T06:45:32.583Z,77.17
2022-09-20T06:55:39.716Z,77.19
2022-09-20T07:05:46.353Z,77.13
2022-09-20T07:15:51.703Z,77.27
2022-09-20T07:25:57.030Z,76.46
2022-09-20T07:36:02.773Z,78.51
2022-09-20T07:46:08.462Z,77.30
2022-09-20T07:56:14.159Z,80.77
2022-09-20T08:06:19.613Z,79.90
2022-09-20T08:16:25.200Z,72.86
2022-09-20T08:26:30.186Z,71.19
2022-09-20T08:36:37.005Z,67.29
2022-09-20T08:46:43.105Z,69.13
2022-09-20T08:56:48.921Z,67.65
2022-09-20T09:06:54.787Z,68.08
2022-09-20T09:17:00.671Z,68.25
2022-09-20T09:27:06.611Z,68.22
2022-09-20T09:37:12.043Z,67.75
2022-09-20T09:47:17.592Z,67.00
2022-09-20T09:57:22.988Z,67.15
2022-09-20T10:07:28.657Z,63.73
2022-09-20T10:17:34.237Z,63.06
2022-09-20T10:27:39.925Z,62.64
2022-09-20T10:37:49.176Z,63.12
2022-09-20T10:47:54.922Z,62.31
2022-09-20T10:58:00.580Z,61.71
2022-09-20T11:08:05.860Z,60.93
2022-09-20T11:18:11.722Z,62.41
2022-09-20T11:28:17.396Z,62.02
2022-09-20T11:38:22.684Z,62.19
2022-09-20T11:48:27.972Z,62.99
2022-09-20T11:59:53.299Z,60.24
2022-09-20T12:09:58.837Z,62.02
2022-09-20T12:20:04.201Z,62.35
2022-09-20T12:30:10.348Z,58.21
2022-09-20T12:40:15.800Z,55.53
2022-09-20T12:50:21.984Z,54.36
2022-09-20T13:00:27.143Z,54.90
2022-09-20T13:10:34.479Z,56.93
2022-09-20T13:20:39.571Z,58.31
2022-09-20T13:30:44.826Z,59.29
2022-09-20T13:40:50.820Z,58.97
2022-09-20T13:50:55.939Z,60.52
2022-09-20T14:01:01.560Z,63.26
2022-09-20T14:11:06.885Z,64.07
2022-09-20T14:21:12.583Z,64.23
2022-09-20T14:31:19.426Z,59.91
2022-09-20T14:41:25.487Z,56.10
2022-09-20T14:51:31.363Z,57.55
2022-09-20T15:01:36.693Z,58.59
2022-09-20T15:11:41.578Z,60.34
2022-09-20T15:21:46.952Z,61.22
2022-09-20T15:31:52.224Z,63.30
2022-09-20T15:41:57.518Z,63.83
2022-09-20T15:52:02.679Z,64.83
2022-09-20T16:02:07.980Z,65.07
2022-09-20T16:12:13.541Z,65.18
2022-09-20T16:22:18.969Z,66.12
2022-09-20T16:32:24.158Z,64.40
2022-09-20T16:42:29.183Z,68.15
2022-09-20T16:52:35.054Z,67.45
2022-09-20T17:02:44.596Z,67.13
2022-09-20T17:12:51.511Z,67.06
2022-09-20T17:22:57.448Z,68.29
2022-09-20T17:33:02.846Z,68.65
2022-09-20T17:43:07.868Z,71.46
2022-09-20T17:53:13.445Z,71.66
2022-09-20T18:03:18.965Z,71.19
2022-09-20T18:13:24.659Z,72.56
2022-09-20T18:23:30.165Z,72.98
2022-09-20T18:33:35.953Z,72.52
2022-09-20T18:43:41.029Z,72.63
2022-09-20T18:53:46.796Z,72.40
2022-09-20T19:03:52.284Z,72.20
2022-09-20T19:13:59.163Z,72.33
2022-09-20T19:24:06.389Z,72.55
2022-09-20T19:34:13.194Z,72.83
2022-09-20T19:44:19.996Z,73.08
2022-09-20T19:54:27.304Z,73.35
2022-09-20T20:04:34.327Z,73.57
2022-09-20T20:14:41.647Z,74.41
2022-09-20T20:24:47.917Z,74.53
2022-09-20T20:34:54.338Z,74.83
2022-09-20T20:45:01.202Z,75.20
2022-09-20T20:55:07.563Z,75.46
2022-09-20T21:05:14.227Z,75.67
2022-09-20T21:15:20.742Z,75.88
2022-09-20T21:25:27.535Z,76.05
2022-09-20T21:35:34.021Z,76.18
2022-09-20T21:45:40.506Z,76.39
2022-09-20T21:55:47.242Z,76.45
2022-09-20T22:05:53.932Z,76.59
2022-09-20T22:16:01.217Z,76.57
2022-09-20T22:26:08.602Z,76.58
2022-09-20T22:36:14.073Z,76.62
2022-09-20T22:46:21.404Z,76.59
2022-09-20T22:56:27.275Z,76.58
2022-09-20T23:06:33.805Z,76.50
2022-09-20T23:16:39.370Z,76.62
2022-09-20T23:26:46.677Z,76.56
2022-09-20T23:36:51.759Z,76.73
2022-09-20T23:46:58.866Z,76.75
2022-09-20T23:57:04.148Z,76.78
